createdAt,value
2019-02-06T00:01:46.015Z,30.97
2019-02-06T00:05:14.405Z,30.27
2019-02-06T00:08:33.346Z,27.60
2019-02-06T00:11:56.132Z,26.77
2019-02-06T00:15:19.032Z,27.37
2019-02-06T00:18:41.475Z,26.97
2019-02-06T00:22:05.713Z,28.57
2019-02-06T00:25:28.284Z,30.63
2019-02-06T00:28:50.728Z,23.83
2019-02-06T00:32:13.392Z,26.03
2019-02-06T00:35:36.262Z,28.57
2019-02-06T00:38:58.537Z,25.33
2019-02-06T00:42:21.303Z,24.53
2019-02-06T00:45:51.165Z,26.83
2019-02-06T00:49:13.948Z,29.07
2019-02-06T00:52:36.504Z,26.57
2019-02-06T00:55:59.089Z,26.60
2019-02-06T00:59:21.556Z,25.07
2019-02-06T01:02:44.601Z,26.37
2019-02-06T01:06:07.256Z,24.90
2019-02-06T01:09:29.846Z,24.87
2019-02-06T01:12:52.544Z,23.17
2019-02-06T01:16:15.424Z,25.40
2019-02-06T01:19:38.115Z,25.87
2019-02-06T01:23:00.672Z,26.30
2019-02-06T01:26:27.526Z,25.27
2019-02-06T01:29:49.753Z,21.37
2019-02-06T01:33:12.292Z,25.30
2019-02-06T01:36:35.046Z,23.43
2019-02-06T01:39:57.664Z,24.67
2019-02-06T01:43:20.148Z,26.87
2019-02-06T01:46:42.996Z,26.90
2019-02-06T01:50:07.356Z,24.97
2019-02-06T01:53:30.445Z,26.60
2019-02-06T01:56:53.609Z,23.63
2019-02-06T02:00:21.618Z,24.27
2019-02-06T02:03:44.265Z,22.30
2019-02-06T02:07:06.981Z,24.77
2019-02-06T02:10:29.643Z,24.43
2019-02-06T02:13:52.307Z,22.60
2019-02-06T02:17:14.882Z,23.40
2019-02-06T02:20:37.296Z,23.43
2019-02-06T02:23:59.824Z,20.40
2019-02-06T02:27:22.469Z,27.73
2019-02-06T02:30:48.532Z,24.83
2019-02-06T02:34:10.664Z,24.33
2019-02-06T02:37:32.853Z,23.30
2019-02-06T02:40:55.449Z,24.07
2019-02-06T02:44:18.163Z,24.50
2019-02-06T02:47:40.841Z,25.13
2019-02-06T02:51:03.390Z,26.93
2019-02-06T02:54:26.349Z,23.07
2019-02-06T02:57:49.366Z,25.07
2019-02-06T03:01:29.990Z,22.60
2019-02-06T03:04:57.155Z,25.60
2019-02-06T03:08:19.551Z,25.73
2019-02-06T03:11:42.276Z,23.83
2019-02-06T03:15:05.949Z,24.30
2019-02-06T03:18:28.388Z,28.57
2019-02-06T03:21:50.916Z,26.17
2019-02-06T03:25:13.879Z,32.33
2019-02-06T03:28:36.365Z,26.53
2019-02-06T03:31:58.826Z,26.80
2019-02-06T03:35:21.588Z,27.33
2019-02-06T03:38:44.346Z,27.80
2019-02-06T03:42:06.892Z,33.63
2019-02-06T03:45:29.325Z,28.37
2019-02-06T03:48:52.163Z,32.43
2019-02-06T03:52:15.010Z,32.33
2019-02-06T03:55:37.413Z,32.43
2019-02-06T03:59:00.357Z,26.23
2019-02-06T04:02:22.981Z,28.70
2019-02-06T04:05:46.094Z,31.37
2019-02-06T04:09:09.267Z,32.80
2019-02-06T04:12:31.582Z,32.40
2019-02-06T04:15:54.108Z,32.57
2019-02-06T04:19:16.484Z,38.67
2019-02-06T04:22:38.801Z,42.43
2019-02-06T04:26:01.621Z,42.27
2019-02-06T04:29:24.249Z,40.77
2019-02-06T04:32:46.955Z,48.27
2019-02-06T04:36:09.390Z,42.20
2019-02-06T04:39:32.036Z,41.33
2019-02-06T04:42:54.437Z,50.33
2019-02-06T04:46:17.156Z,46.73
2019-02-06T04:49:39.834Z,52.83
2019-02-06T04:53:02.516Z,44.60
2019-02-06T04:56:25.060Z,48.73
2019-02-06T04:59:48.190Z,49.93
2019-02-06T05:03:10.602Z,54.53
2019-02-06T05:06:32.745Z,53.13
2019-02-06T05:09:54.814Z,50.27
2019-02-06T05:13:17.309Z,50.93
2019-02-06T05:16:40.133Z,49.43
2019-02-06T05:20:04.345Z,57.07
2019-02-06T05:23:26.895Z,55.07
2019-02-06T05:26:49.555Z,54.60
2019-02-06T05:30:12.469Z,60.13
2019-02-06T05:33:35.112Z,52.60
2019-02-06T05:36:57.623Z,65.60
2019-02-06T05:40:20.396Z,64.87
2019-02-06T05:43:42.948Z,65.23
2019-02-06T05:47:05.900Z,62.97
2019-02-06T05:50:28.515Z,74.47
2019-02-06T05:53:51.209Z,74.30
2019-02-06T05:57:14.128Z,68.30
2019-02-06T06:00:41.737Z,74.07
2019-02-06T06:04:04.361Z,77.23
2019-02-06T06:07:26.816Z,77.00
2019-02-06T06:10:49.405Z,73.57
2019-02-06T06:14:11.984Z,77.00
2019-02-06T06:17:34.466Z,75.43
2019-02-06T06:20:57.093Z,80.83
2019-02-06T06:24:19.913Z,78.70
2019-02-06T06:27:43.022Z,78.50
2019-02-06T06:31:05.728Z,84.00
2019-02-06T06:34:28.840Z,96.43
2019-02-06T06:37:59.499Z,81.63
2019-02-06T06:41:16.095Z,87.53
2019-02-06T06:44:38.976Z,95.47
2019-02-06T06:48:01.613Z,91.57
2019-02-06T06:51:24.441Z,87.37
2019-02-06T06:54:47.109Z,89.63
2019-02-06T06:58:10.252Z,98.47
2019-02-06T07:01:33.021Z,78.70
2019-02-06T07:04:55.892Z,83.47
2019-02-06T07:08:18.133Z,84.50
2019-02-06T07:11:40.672Z,81.50
2019-02-06T07:15:03.404Z,79.23
2019-02-06T07:18:26.310Z,72.33
2019-02-06T07:21:48.814Z,77.97
2019-02-06T07:25:11.622Z,70.37
2019-02-06T07:28:34.764Z,68.00
2019-02-06T07:31:56.967Z,70.00
2019-02-06T07:35:19.473Z,64.10
2019-02-06T07:38:42.201Z,60.73
2019-02-06T07:42:04.672Z,56.63
2019-02-06T07:45:27.361Z,61.50
2019-02-06T07:48:49.491Z,57.43
2019-02-06T07:52:12.013Z,62.00
2019-02-06T07:55:34.445Z,64.53
2019-02-06T07:58:56.975Z,60.27
2019-02-06T08:02:19.628Z,58.43
2019-02-06T08:05:42.426Z,54.70
2019-02-06T08:09:08.424Z,57.10
2019-02-06T08:12:30.769Z,47.93
2019-02-06T08:15:53.552Z,46.70
2019-02-06T08:19:15.929Z,47.53
2019-02-06T08:22:38.527Z,48.87
2019-02-06T08:26:01.073Z,46.63
2019-02-06T08:29:23.736Z,51.20
2019-02-06T08:32:46.247Z,49.30
2019-02-06T08:36:08.945Z,49.77
2019-02-06T08:39:31.404Z,50.10
2019-02-06T08:42:53.864Z,47.33
2019-02-06T08:46:16.339Z,50.97
2019-02-06T08:49:38.837Z,44.40
2019-02-06T08:53:01.350Z,45.23
2019-02-06T08:56:24.280Z,45.20
2019-02-06T08:59:47.035Z,47.03
2019-02-06T09:03:10.477Z,43.73
2019-02-06T09:06:33.083Z,42.23
2019-02-06T09:09:55.705Z,46.60
2019-02-06T09:13:19.063Z,45.47
2019-02-06T09:16:42.501Z,40.27
2019-02-06T09:20:07.395Z,43.23
2019-02-06T09:23:29.592Z,44.00
2019-02-06T09:26:52.298Z,39.20
2019-02-06T09:30:17.721Z,45.93
2019-02-06T09:33:40.381Z,36.83
2019-02-06T09:37:05.028Z,41.90
2019-02-06T09:40:28.762Z,46.47
2019-02-06T09:43:51.408Z,44.60
2019-02-06T09:47:13.991Z,35.03
2019-02-06T09:50:37.671Z,36.93
2019-02-06T09:54:00.390Z,38.70
2019-02-06T09:57:22.905Z,40.03
2019-02-06T10:00:45.545Z,35.17
2019-02-06T10:04:07.964Z,37.33
2019-02-06T10:07:30.187Z,38.00
2019-02-06T10:10:53.453Z,43.20
2019-02-06T10:14:16.563Z,32.77
2019-02-06T10:17:39.165Z,35.17
2019-02-06T10:21:01.748Z,59.87
2019-02-06T10:24:24.338Z,41.87
2019-02-06T10:27:46.892Z,35.33
2019-02-06T10:31:09.474Z,41.73
2019-02-06T10:34:32.320Z,38.37
2019-02-06T10:37:55.145Z,39.57
2019-02-06T10:41:17.283Z,38.70
2019-02-06T10:44:40.033Z,35.17
2019-02-06T10:48:02.777Z,32.60
2019-02-06T10:51:25.161Z,36.07
2019-02-06T10:54:47.634Z,36.70
2019-02-06T10:58:10.163Z,31.07
2019-02-06T11:01:33.298Z,27.57
2019-02-06T11:04:56.126Z,31.23
2019-02-06T11:08:18.860Z,30.77
2019-02-06T11:11:41.208Z,35.30
2019-02-06T11:15:05.200Z,31.87
2019-02-06T11:18:28.023Z,22.50
2019-02-06T11:21:50.171Z,26.47
2019-02-06T11:25:31.890Z,26.17
2019-02-06T11:28:54.336Z,24.20
2019-02-06T11:32:16.754Z,20.50
2019-02-06T11:35:39.346Z,23.60
2019-02-06T11:39:01.829Z,23.87
2019-02-06T11:42:24.440Z,22.43
2019-02-06T11:45:47.256Z,25.93
2019-02-06T11:49:10.108Z,23.90
2019-02-06T11:52:32.861Z,21.20
2019-02-06T11:55:56.037Z,20.97
2019-02-06T11:59:18.806Z,25.80
2019-02-06T12:02:41.610Z,20.73
2019-02-06T12:06:04.364Z,22.80
2019-02-06T12:09:26.860Z,19.10
2019-02-06T12:12:49.905Z,19.87
2019-02-06T12:16:12.445Z,20.20
2019-02-06T12:19:34.857Z,20.23
2019-02-06T12:22:57.076Z,33.77
2019-02-06T12:26:19.542Z,25.10
2019-02-06T12:29:42.094Z,22.23
2019-02-06T12:33:05.349Z,26.13
2019-02-06T12:36:28.011Z,18.23
2019-02-06T12:39:51.315Z,29.10
2019-02-06T12:43:13.896Z,20.97
2019-02-06T12:46:36.513Z,17.93
2019-02-06T12:49:59.248Z,23.50
2019-02-06T12:53:23.205Z,20.43
2019-02-06T12:56:45.867Z,18.30
2019-02-06T13:00:15.084Z,21.20
2019-02-06T13:03:37.753Z,27.13
2019-02-06T13:07:00.406Z,17.57
2019-02-06T13:10:33.451Z,19.07
2019-02-06T13:13:47.286Z,22.23
2019-02-06T13:17:10.062Z,17.57
2019-02-06T13:20:32.653Z,16.03
2019-02-06T13:23:54.813Z,19.63
2019-02-06T13:27:17.181Z,16.53
2019-02-06T13:30:39.822Z,18.73
2019-02-06T13:34:02.204Z,16.83
2019-02-06T13:37:24.637Z,22.03
2019-02-06T13:40:47.310Z,15.67
2019-02-06T13:44:09.428Z,15.20
2019-02-06T13:47:32.523Z,14.33
2019-02-06T13:50:55.621Z,23.20
2019-02-06T13:54:18.513Z,17.60
2019-02-06T13:57:41.185Z,20.93
2019-02-06T14:01:05.063Z,17.63
2019-02-06T14:04:27.422Z,17.50
2019-02-06T14:07:50.741Z,17.30
2019-02-06T14:11:13.326Z,18.67
2019-02-06T14:14:35.867Z,22.33
2019-02-06T14:17:58.806Z,19.00
2019-02-06T14:21:21.410Z,17.80
2019-02-06T14:24:57.926Z,22.23
2019-02-06T14:28:44.993Z,19.30
2019-02-06T14:32:59.037Z,19.83
2019-02-06T14:36:39.713Z,22.93
2019-02-06T14:40:15.309Z,19.97
2019-02-06T14:43:47.350Z,26.43
2019-02-06T14:47:50.742Z,25.10
2019-02-06T14:51:38.155Z,31.53
2019-02-06T14:55:42.398Z,20.83
2019-02-06T14:59:36.766Z,21.83
2019-02-06T15:03:25.249Z,26.63
2019-02-06T15:07:44.324Z,20.80
2019-02-06T15:11:21.234Z,22.23
2019-02-06T15:15:04.709Z,18.17
2019-02-06T15:18:52.873Z,19.20
2019-02-06T15:22:39.181Z,20.77
2019-02-06T15:26:21.192Z,22.63
2019-02-06T15:30:12.606Z,20.23
2019-02-06T15:34:09.585Z,21.17
2019-02-06T15:37:47.723Z,21.27
2019-02-06T15:41:40.826Z,22.27
2019-02-06T15:45:17.898Z,20.70
2019-02-06T15:49:08.326Z,21.97
2019-02-06T15:53:13.454Z,19.67
2019-02-06T15:56:59.382Z,28.27
2019-02-06T16:01:15.523Z,22.60
2019-02-06T16:05:13.110Z,21.53
2019-02-06T16:09:01.546Z,20.43
2019-02-06T16:12:47.396Z,21.50
2019-02-06T16:16:50.756Z,23.40
2019-02-06T16:20:46.492Z,22.73
2019-02-06T16:24:44.218Z,21.13
2019-02-06T16:28:43.130Z,22.50
2019-02-06T16:32:36.529Z,19.37
2019-02-06T16:36:31.229Z,23.10
2019-02-06T16:40:18.046Z,22.27
2019-02-06T16:44:12.224Z,21.40
2019-02-06T16:47:59.569Z,22.93
2019-02-06T16:51:43.862Z,23.53
2019-02-06T16:55:30.818Z,30.10
2019-02-06T16:59:04.951Z,25.93
2019-02-06T17:03:13.725Z,21.30
2019-02-06T17:07:01.730Z,19.53
2019-02-06T17:10:59.807Z,24.17
2019-02-06T17:15:04.908Z,29.87
2019-02-06T17:18:52.781Z,24.60
2019-02-06T17:22:29.933Z,23.73
2019-02-06T17:26:34.913Z,25.87
2019-02-06T17:30:45.189Z,28.70
2019-02-06T17:35:04.643Z,24.33
2019-02-06T17:39:01.690Z,28.97
2019-02-06T17:42:42.888Z,22.83
2019-02-06T17:46:26.106Z,25.23
2019-02-06T17:50:11.723Z,27.47
2019-02-06T17:54:05.236Z,22.93
2019-02-06T17:57:28.043Z,28.10
2019-02-06T18:01:04.520Z,27.50
2019-02-06T18:04:30.425Z,25.83
2019-02-06T18:07:52.969Z,33.23
2019-02-06T18:11:16.062Z,30.70
2019-02-06T18:14:38.373Z,33.83
2019-02-06T18:18:02.582Z,32.00
2019-02-06T18:21:24.586Z,36.07
2019-02-06T18:24:47.242Z,30.53
2019-02-06T18:28:11.817Z,31.90
2019-02-06T18:31:33.326Z,30.83
2019-02-06T18:34:55.681Z,28.07
2019-02-06T18:38:18.507Z,28.00
2019-02-06T18:41:41.363Z,24.30
2019-02-06T18:45:05.347Z,22.80
2019-02-06T18:48:28.714Z,28.03
2019-02-06T18:51:51.461Z,24.47
2019-02-06T18:55:14.272Z,28.47
2019-02-06T18:58:36.710Z,25.97
2019-02-06T19:01:59.209Z,25.40
2019-02-06T19:05:24.158Z,29.20
2019-02-06T19:08:46.720Z,24.90
2019-02-06T19:12:09.798Z,28.90
2019-02-06T19:15:32.274Z,33.27
2019-02-06T19:18:55.090Z,24.13
2019-02-06T19:22:17.568Z,24.67
2019-02-06T19:25:40.152Z,30.27
2019-02-06T19:29:02.677Z,20.67
2019-02-06T19:32:25.539Z,25.77
2019-02-06T19:35:48.015Z,24.67
2019-02-06T19:39:10.792Z,25.30
2019-02-06T19:42:33.566Z,26.63
2019-02-06T19:45:55.966Z,27.43
2019-02-06T19:49:18.510Z,27.73
2019-02-06T19:52:41.485Z,26.53
2019-02-06T19:56:04.980Z,24.70
2019-02-06T19:59:27.751Z,27.53
2019-02-06T20:02:51.150Z,24.30
2019-02-06T20:06:30.270Z,24.13
2019-02-06T20:09:52.754Z,25.90
2019-02-06T20:13:15.858Z,24.53
2019-02-06T20:16:38.369Z,27.67
2019-02-06T20:20:00.871Z,26.17
2019-02-06T20:23:23.342Z,23.70
2019-02-06T20:26:45.893Z,25.87
2019-02-06T20:30:12.031Z,29.13
2019-02-06T20:33:34.489Z,29.00
2019-02-06T20:36:57.173Z,26.53
2019-02-06T20:40:22.605Z,29.60
2019-02-06T20:43:45.314Z,25.50
2019-02-06T20:47:07.580Z,25.40
2019-02-06T20:50:31.582Z,24.00
2019-02-06T20:53:54.389Z,24.03
2019-02-06T20:57:16.870Z,26.83
2019-02-06T21:00:39.009Z,23.77
2019-02-06T21:04:01.524Z,22.07
2019-02-06T21:07:24.014Z,25.87
2019-02-06T21:10:46.596Z,32.93
2019-02-06T21:14:09.306Z,26.13
2019-02-06T21:17:32.110Z,24.97
2019-02-06T21:20:54.728Z,27.67
2019-02-06T21:24:17.598Z,25.40
2019-02-06T21:27:40.457Z,29.37
2019-02-06T21:31:03.495Z,27.40
2019-02-06T21:34:26.198Z,25.40
2019-02-06T21:37:49.252Z,24.83
2019-02-06T21:41:12.278Z,25.50
2019-02-06T21:44:35.485Z,24.90
2019-02-06T21:47:58.165Z,24.33
2019-02-06T21:51:20.969Z,23.40
2019-02-06T21:54:43.588Z,26.70
2019-02-06T21:58:06.268Z,29.20
2019-02-06T22:01:28.163Z,25.90
2019-02-06T22:04:50.882Z,23.50
2019-02-06T22:08:13.369Z,26.37
2019-02-06T22:11:35.867Z,26.63
2019-02-06T22:14:58.348Z,22.57
2019-02-06T22:18:20.850Z,27.70
2019-02-06T22:21:43.641Z,23.37
2019-02-06T22:25:06.685Z,30.07
2019-02-06T22:28:29.074Z,25.87
2019-02-06T22:31:51.188Z,24.60
2019-02-06T22:35:13.972Z,26.07
2019-02-06T22:38:36.285Z,24.57
2019-02-06T22:41:58.781Z,23.67
2019-02-06T22:45:23.560Z,25.60
2019-02-06T22:48:46.149Z,24.57
2019-02-06T22:52:12.402Z,27.30
2019-02-06T22:55:35.034Z,27.60
2019-02-06T22:58:57.585Z,26.67
2019-02-06T23:02:20.210Z,26.60
2019-02-06T23:05:42.740Z,29.20
2019-02-06T23:09:07.474Z,26.83
2019-02-06T23:12:30.217Z,27.53
2019-02-06T23:15:53.190Z,24.53
2019-02-06T23:19:15.901Z,23.83
2019-02-06T23:22:38.685Z,28.20
2019-02-06T23:26:01.466Z,23.97
2019-02-06T23:29:23.876Z,26.73
2019-02-06T23:32:46.582Z,24.37
2019-02-06T23:36:09.468Z,27.23
2019-02-06T23:39:31.817Z,23.87
2019-02-06T23:42:55.517Z,23.27
2019-02-06T23:46:18.790Z,24.83
2019-02-06T23:49:41.623Z,21.10
2019-02-06T23:53:04.673Z,24.80
2019-02-06T23:56:27.284Z,28.97
2019-02-06T23:59:50.008Z,26.83
